sensor_id;sensor_type;location;lat;lon;timestamp;pressure;altitude;pressure_sealevel;temperature;humidity
83025;BME280;72958;53.326;-1.496;2023-12-07T00:01:18;99186.80;;;7.40;39.42
83025;BME280;72958;53.326;-1.496;2023-12-07T00:03:50;99182.53;;;8.12;39.04
83025;BME280;72958;53.326;-1.496;2023-12-07T00:07:34;99178.47;;;8.46;38.71
83025;BME280;72958;53.326;-1.496;2023-12-07T00:10:04;99180.01;;;7.93;39.52
83025;BME280;72958;53.326;-1.496;2023-12-07T00:12:41;99173.55;;;7.94;39.50
83025;BME280;72958;53.326;-1.496;2023-12-07T00:15:22;99176.45;;;7.53;40.15
83025;BME280;72958;53.326;-1.496;2023-12-07T00:17:55;99168.56;;;7.51;39.90
83025;BME280;72958;53.326;-1.496;2023-12-07T00:20:35;99163.23;;;7.83;39.29
83025;BME280;72958;53.326;-1.496;2023-12-07T00:23:02;99162.30;;;7.67;39.58
83025;BME280;72958;53.326;-1.496;2023-12-07T00:25:32;99159.96;;;7.77;39.90
83025;BME280;72958;53.326;-1.496;2023-12-07T00:28:08;99158.61;;;8.09;39.37
83025;BME280;72958;53.326;-1.496;2023-12-07T00:30:39;99148.19;;;7.59;39.97
83025;BME280;72958;53.326;-1.496;2023-12-07T00:33:12;99151.22;;;7.62;40.09
83025;BME280;72958;53.326;-1.496;2023-12-07T00:36:23;99147.05;;;7.90;39.68
83025;BME280;72958;53.326;-1.496;2023-12-07T00:39:06;99143.04;;;8.13;40.11
83025;BME280;72958;53.326;-1.496;2023-12-07T00:41:45;99138.16;;;7.49;40.28
83025;BME280;72958;53.326;-1.496;2023-12-07T00:44:14;99133.21;;;7.25;40.54
83025;BME280;72958;53.326;-1.496;2023-12-07T00:46:51;99129.94;;;7.52;40.34
83025;BME280;72958;53.326;-1.496;2023-12-07T00:49:17;99124.26;;;7.52;39.93
83025;BME280;72958;53.326;-1.496;2023-12-07T00:52:07;99126.18;;;7.70;40.04
83025;BME280;72958;53.326;-1.496;2023-12-07T00:54:50;99123.89;;;6.77;41.54
83025;BME280;72958;53.326;-1.496;2023-12-07T00:57:27;99117.10;;;6.85;41.41
83025;BME280;72958;53.326;-1.496;2023-12-07T00:59:58;99112.72;;;7.49;40.52
83025;BME280;72958;53.326;-1.496;2023-12-07T01:02:36;99113.46;;;7.77;40.10
83025;BME280;72958;53.326;-1.496;2023-12-07T01:05:30;99107.85;;;7.79;39.74
83025;BME280;72958;53.326;-1.496;2023-12-07T01:08:34;99109.35;;;7.91;39.18
83025;BME280;72958;53.326;-1.496;2023-12-07T01:11:11;99103.97;;;8.05;39.18
83025;BME280;72958;53.326;-1.496;2023-12-07T01:14:45;99105.31;;;7.91;39.77
83025;BME280;72958;53.326;-1.496;2023-12-07T01:17:19;99092.61;;;7.97;39.81
83025;BME280;72958;53.326;-1.496;2023-12-07T01:19:53;99092.82;;;7.08;41.14
83025;BME280;72958;53.326;-1.496;2023-12-07T01:22:43;99090.42;;;7.62;40.21
83025;BME280;72958;53.326;-1.496;2023-12-07T01:25:10;99094.17;;;8.30;39.60
83025;BME280;72958;53.326;-1.496;2023-12-07T01:27:52;99093.02;;;8.08;39.66
83025;BME280;72958;53.326;-1.496;2023-12-07T01:30:19;99097.01;;;8.26;39.78
83025;BME280;72958;53.326;-1.496;2023-12-07T01:32:56;99097.17;;;7.35;41.01
83025;BME280;72958;53.326;-1.496;2023-12-07T01:35:23;99096.57;;;7.24;41.57
83025;BME280;72958;53.326;-1.496;2023-12-07T01:37:53;99097.61;;;6.30;43.27
83025;BME280;72958;53.326;-1.496;2023-12-07T01:40:57;99092.46;;;7.36;41.56
83025;BME280;72958;53.326;-1.496;2023-12-07T01:43:59;99090.93;;;8.01;40.73
83025;BME280;72958;53.326;-1.496;2023-12-07T01:46:29;99091.74;;;7.34;41.41
83025;BME280;72958;53.326;-1.496;2023-12-07T01:49:17;99090.65;;;7.83;40.89
83025;BME280;72958;53.326;-1.496;2023-12-07T01:52:15;99084.48;;;8.30;39.73
83025;BME280;72958;53.326;-1.496;2023-12-07T01:54:52;99082.55;;;8.04;40.35
83025;BME280;72958;53.326;-1.496;2023-12-07T01:57:25;99077.79;;;8.39;40.22
83025;BME280;72958;53.326;-1.496;2023-12-07T02:01:14;99065.52;;;8.40;39.39
83025;BME280;72958;53.326;-1.496;2023-12-07T02:04:11;99058.70;;;7.87;40.07
83025;BME280;72958;53.326;-1.496;2023-12-07T02:07:27;99051.22;;;7.91;40.34
83025;BME280;72958;53.326;-1.496;2023-12-07T02:10:07;99044.54;;;8.37;39.92
83025;BME280;72958;53.326;-1.496;2023-12-07T02:12:34;99041.07;;;8.62;39.38
83025;BME280;72958;53.326;-1.496;2023-12-07T02:15:01;99043.94;;;8.41;39.83
83025;BME280;72958;53.326;-1.496;2023-12-07T02:17:35;99040.67;;;7.82;40.36
83025;BME280;72958;53.326;-1.496;2023-12-07T02:21:04;99036.28;;;8.05;40.30
83025;BME280;72958;53.326;-1.496;2023-12-07T02:23:25;99034.42;;;8.48;40.21
83025;BME280;72958;53.326;-1.496;2023-12-07T02:26:03;99030.27;;;8.24;39.89
83025;BME280;72958;53.326;-1.496;2023-12-07T02:28:39;99031.63;;;8.57;40.16
83025;BME280;72958;53.326;-1.496;2023-12-07T02:31:04;99034.06;;;8.26;40.33
83025;BME280;72958;53.326;-1.496;2023-12-07T02:33:45;99026.04;;;7.95;41.26
83025;BME280;72958;53.326;-1.496;2023-12-07T02:36:27;99021.14;;;8.31;40.82
83025;BME280;72958;53.326;-1.496;2023-12-07T02:39:12;99013.66;;;8.45;40.73
83025;BME280;72958;53.326;-1.496;2023-12-07T02:42:13;99007.29;;;8.48;40.74
83025;BME280;72958;53.326;-1.496;2023-12-07T02:44:38;99002.63;;;8.56;40.64
83025;BME280;72958;53.326;-1.496;2023-12-07T02:47:12;98999.57;;;7.99;41.48
83025;BME280;72958;53.326;-1.496;2023-12-07T02:49:44;98999.03;;;8.19;41.43
83025;BME280;72958;53.326;-1.496;2023-12-07T02:52:11;98988.98;;;8.16;42.40
83025;BME280;72958;53.326;-1.496;2023-12-07T02:54:41;98985.12;;;7.68;42.90
83025;BME280;72958;53.326;-1.496;2023-12-07T02:57:26;98978.36;;;7.93;42.40
83025;BME280;72958;53.326;-1.496;2023-12-07T03:00:47;98977.37;;;7.84;42.38
83025;BME280;72958;53.326;-1.496;2023-12-07T03:03:17;98977.58;;;7.71;42.58
83025;BME280;72958;53.326;-1.496;2023-12-07T03:07:11;98972.30;;;7.75;42.69
83025;BME280;72958;53.326;-1.496;2023-12-07T03:09:39;98966.57;;;7.12;44.38
83025;BME280;72958;53.326;-1.496;2023-12-07T03:12:06;98960.81;;;6.98;45.06
83025;BME280;72958;53.326;-1.496;2023-12-07T03:14:53;98958.82;;;5.88;46.89
83025;BME280;72958;53.326;-1.496;2023-12-07T03:17:27;98959.77;;;6.92;44.96
83025;BME280;72958;53.326;-1.496;2023-12-07T03:20:06;98958.98;;;6.96;44.84
83025;BME280;72958;53.326;-1.496;2023-12-07T03:23:10;98954.43;;;7.43;44.61
83025;BME280;72958;53.326;-1.496;2023-12-07T03:25:34;98949.74;;;6.63;46.09
83025;BME280;72958;53.326;-1.496;2023-12-07T03:28:00;98940.30;;;7.17;45.19
83025;BME280;72958;53.326;-1.496;2023-12-07T03:31:12;98928.46;;;6.70;45.20
83025;BME280;72958;53.326;-1.496;2023-12-07T03:33:45;98920.87;;;7.76;44.19
83025;BME280;72958;53.326;-1.496;2023-12-07T03:36:12;98919.53;;;7.21;44.86
83025;BME280;72958;53.326;-1.496;2023-12-07T03:38:46;98914.93;;;7.16;44.30
83025;BME280;72958;53.326;-1.496;2023-12-07T03:41:19;98915.23;;;7.77;44.11
83025;BME280;72958;53.326;-1.496;2023-12-07T03:43:44;98916.91;;;7.35;44.75
83025;BME280;72958;53.326;-1.496;2023-12-07T03:46:30;98908.47;;;6.63;45.01
83025;BME280;72958;53.326;-1.496;2023-12-07T03:49:34;98903.16;;;6.87;45.59
83025;BME280;72958;53.326;-1.496;2023-12-07T03:52:12;98902.46;;;7.38;44.85
83025;BME280;72958;53.326;-1.496;2023-12-07T03:54:38;98893.54;;;6.46;46.43
83025;BME280;72958;53.326;-1.496;2023-12-07T03:57:05;98888.84;;;7.02;45.50
83025;BME280;72958;53.326;-1.496;2023-12-07T03:59:36;98887.60;;;6.87;45.80
83025;BME280;72958;53.326;-1.496;2023-12-07T04:02:01;98878.09;;;7.46;44.60
83025;BME280;72958;53.326;-1.496;2023-12-07T04:04:48;98877.62;;;7.59;44.31
83025;BME280;72958;53.326;-1.496;2023-12-07T04:07:18;98879.86;;;7.06;44.77
83025;BME280;72958;53.326;-1.496;2023-12-07T04:09:47;98879.64;;;7.28;44.90
83025;BME280;72958;53.326;-1.496;2023-12-07T04:12:14;98875.89;;;6.97;44.66
83025;BME280;72958;53.326;-1.496;2023-12-07T04:15:08;98866.57;;;7.35;44.69
83025;BME280;72958;53.326;-1.496;2023-12-07T04:18:11;98861.97;;;7.20;44.46
83025;BME280;72958;53.326;-1.496;2023-12-07T04:20:41;98862.53;;;7.91;43.65
83025;BME280;72958;53.326;-1.496;2023-12-07T04:23:29;98846.91;;;8.14;43.34
83025;BME280;72958;53.326;-1.496;2023-12-07T04:26:00;98841.43;;;6.79;45.90
83025;BME280;72958;53.326;-1.496;2023-12-07T04:28:27;98839.70;;;7.46;44.56
83025;BME280;72958;53.326;-1.496;2023-12-07T04:31:00;98835.58;;;7.59;44.43
83025;BME280;72958;53.326;-1.496;2023-12-07T04:33:36;98830.90;;;7.99;43.42
83025;BME280;72958;53.326;-1.496;2023-12-07T04:36:27;98824.51;;;8.19;43.96
83025;BME280;72958;53.326;-1.496;2023-12-07T04:39:18;98818.88;;;7.93;43.91
83025;BME280;72958;53.326;-1.496;2023-12-07T04:42:21;98816.13;;;7.75;44.39
83025;BME280;72958;53.326;-1.496;2023-12-07T04:45:44;98811.63;;;7.53;44.51
83025;BME280;72958;53.326;-1.496;2023-12-07T04:48:12;98806.35;;;7.55;44.90
83025;BME280;72958;53.326;-1.496;2023-12-07T04:51:25;98797.64;;;7.78;45.16
83025;BME280;72958;53.326;-1.496;2023-12-07T04:53:55;98792.87;;;7.07;46.30
83025;BME280;72958;53.326;-1.496;2023-12-07T04:56:40;98788.07;;;6.94;46.99
83025;BME280;72958;53.326;-1.496;2023-12-07T04:59:08;98784.53;;;7.11;46.90
83025;BME280;72958;53.326;-1.496;2023-12-07T05:01:40;98784.98;;;6.45;47.96
83025;BME280;72958;53.326;-1.496;2023-12-07T05:04:17;98791.04;;;6.95;47.43
83025;BME280;72958;53.326;-1.496;2023-12-07T05:06:47;98791.19;;;6.93;47.49
83025;BME280;72958;53.326;-1.496;2023-12-07T05:09:14;98790.40;;;6.15;49.09
83025;BME280;72958;53.326;-1.496;2023-12-07T05:11:53;98790.43;;;6.63;47.43
83025;BME280;72958;53.326;-1.496;2023-12-07T05:14:41;98784.40;;;7.30;46.37
83025;BME280;72958;53.326;-1.496;2023-12-07T05:17:20;98781.09;;;6.56;47.30
83025;BME280;72958;53.326;-1.496;2023-12-07T05:19:46;98774.09;;;6.72;47.46
83025;BME280;72958;53.326;-1.496;2023-12-07T05:22:19;98765.94;;;7.55;45.98
83025;BME280;72958;53.326;-1.496;2023-12-07T05:24:48;98762.47;;;6.63;46.79
83025;BME280;72958;53.326;-1.496;2023-12-07T05:27:18;98761.43;;;6.84;47.30
83025;BME280;72958;53.326;-1.496;2023-12-07T05:30:27;98765.19;;;7.38;47.16
83025;BME280;72958;53.326;-1.496;2023-12-07T05:32:56;98760.62;;;6.64;48.89
83025;BME280;72958;53.326;-1.496;2023-12-07T05:35:29;98760.94;;;6.80;47.86
83025;BME280;72958;53.326;-1.496;2023-12-07T05:38:01;98760.59;;;6.78;47.43
83025;BME280;72958;53.326;-1.496;2023-12-07T05:40:29;98766.66;;;6.35;48.55
83025;BME280;72958;53.326;-1.496;2023-12-07T05:43:48;98767.53;;;6.53;49.41
83025;BME280;72958;53.326;-1.496;2023-12-07T05:46:15;98765.37;;;6.44;49.07
83025;BME280;72958;53.326;-1.496;2023-12-07T05:49:01;98761.94;;;6.88;48.76
83025;BME280;72958;53.326;-1.496;2023-12-07T05:51:40;98758.00;;;6.75;49.01
83025;BME280;72958;53.326;-1.496;2023-12-07T05:54:18;98752.02;;;7.17;48.46
83025;BME280;72958;53.326;-1.496;2023-12-07T05:57:12;98749.78;;;7.33;47.22
83025;BME280;72958;53.326;-1.496;2023-12-07T05:59:43;98746.35;;;7.67;46.43
83025;BME280;72958;53.326;-1.496;2023-12-07T06:02:19;98741.25;;;7.61;46.06
83025;BME280;72958;53.326;-1.496;2023-12-07T06:05:01;98734.57;;;7.39;46.53
83025;BME280;72958;53.326;-1.496;2023-12-07T06:07:48;98727.36;;;8.00;45.91
83025;BME280;72958;53.326;-1.496;2023-12-07T06:10:20;98720.09;;;7.34;46.04
83025;BME280;72958;53.326;-1.496;2023-12-07T06:13:12;98714.06;;;7.57;46.61
83025;BME280;72958;53.326;-1.496;2023-12-07T06:15:43;98708.04;;;7.24;47.51
83025;BME280;72958;53.326;-1.496;2023-12-07T06:18:12;98706.28;;;7.28;47.34
83025;BME280;72958;53.326;-1.496;2023-12-07T06:21:02;98701.18;;;6.77;47.70
83025;BME280;72958;53.326;-1.496;2023-12-07T06:23:32;98698.05;;;7.41;47.66
83025;BME280;72958;53.326;-1.496;2023-12-07T06:26:11;98696.22;;;7.43;47.08
83025;BME280;72958;53.326;-1.496;2023-12-07T06:28:48;98688.62;;;7.35;47.44
83025;BME280;72958;53.326;-1.496;2023-12-07T06:31:44;98681.92;;;7.51;47.34
83025;BME280;72958;53.326;-1.496;2023-12-07T06:34:17;98671.48;;;6.43;49.67
83025;BME280;72958;53.326;-1.496;2023-12-07T06:36:55;98670.18;;;6.76;48.93
83025;BME280;72958;53.326;-1.496;2023-12-07T06:39:47;98664.02;;;7.33;47.50
83025;BME280;72958;53.326;-1.496;2023-12-07T06:42:48;98660.63;;;7.43;47.25
83025;BME280;72958;53.326;-1.496;2023-12-07T06:46:09;98663.20;;;7.63;47.38
83025;BME280;72958;53.326;-1.496;2023-12-07T06:48:36;98660.60;;;7.23;47.98
83025;BME280;72958;53.326;-1.496;2023-12-07T06:51:25;98649.07;;;7.26;47.40
83025;BME280;72958;53.326;-1.496;2023-12-07T06:55:17;98650.17;;;6.98;48.23
83025;BME280;72958;53.326;-1.496;2023-12-07T06:57:48;98647.59;;;7.27;48.32
83025;BME280;72958;53.326;-1.496;2023-12-07T07:00:53;98640.20;;;7.30;47.91
83025;BME280;72958;53.326;-1.496;2023-12-07T07:03:27;98636.81;;;7.62;47.92
83025;BME280;72958;53.326;-1.496;2023-12-07T07:06:11;98635.66;;;8.10;47.00
83025;BME280;72958;53.326;-1.496;2023-12-07T07:08:36;98630.97;;;7.36;47.52
83025;BME280;72958;53.326;-1.496;2023-12-07T07:11:11;98638.93;;;7.25;48.40
83025;BME280;72958;53.326;-1.496;2023-12-07T07:13:48;98627.71;;;7.84;47.05
83025;BME280;72958;53.326;-1.496;2023-12-07T07:16:40;98628.83;;;6.65;50.29
83025;BME280;72958;53.326;-1.496;2023-12-07T07:19:07;98622.68;;;7.78;48.12
83025;BME280;72958;53.326;-1.496;2023-12-07T07:21:49;98625.68;;;6.82;49.69
83025;BME280;72958;53.326;-1.496;2023-12-07T07:24:15;98614.49;;;7.35;48.42
83025;BME280;72958;53.326;-1.496;2023-12-07T07:27:04;98611.18;;;7.05;49.16
83025;BME280;72958;53.326;-1.496;2023-12-07T07:29:31;98607.98;;;6.86;50.33
83025;BME280;72958;53.326;-1.496;2023-12-07T07:32:23;98597.94;;;6.10;51.79
83025;BME280;72958;53.326;-1.496;2023-12-07T07:34:55;98596.66;;;7.23;48.71
83025;BME280;72958;53.326;-1.496;2023-12-07T07:37:41;98592.14;;;7.29;49.81
83025;BME280;72958;53.326;-1.496;2023-12-07T07:40:08;98601.07;;;6.35;50.27
83025;BME280;72958;53.326;-1.496;2023-12-07T07:42:53;98601.25;;;6.81;51.31
83025;BME280;72958;53.326;-1.496;2023-12-07T07:45:35;98600.81;;;6.26;51.74
83025;BME280;72958;53.326;-1.496;2023-12-07T07:48:33;98593.71;;;7.02;50.53
83025;BME280;72958;53.326;-1.496;2023-12-07T07:51:20;98590.97;;;8.19;48.76
83025;BME280;72958;53.326;-1.496;2023-12-07T07:54:26;98591.95;;;7.03;49.32
83025;BME280;72958;53.326;-1.496;2023-12-07T07:56:54;98592.14;;;7.28;49.13
83025;BME280;72958;53.326;-1.496;2023-12-07T07:59:29;98591.04;;;7.61;49.08
83025;BME280;72958;53.326;-1.496;2023-12-07T08:02:08;98582.14;;;7.77;48.99
83025;BME280;72958;53.326;-1.496;2023-12-07T08:04:34;98587.03;;;6.92;50.10
83025;BME280;72958;53.326;-1.496;2023-12-07T08:07:00;98581.46;;;7.15;51.23
83025;BME280;72958;53.326;-1.496;2023-12-07T08:10:26;98580.30;;;7.22;51.32
83025;BME280;72958;53.326;-1.496;2023-12-07T08:13:04;98579.65;;;7.89;49.33
83025;BME280;72958;53.326;-1.496;2023-12-07T08:15:34;98579.16;;;7.75;49.41
83025;BME280;72958;53.326;-1.496;2023-12-07T08:18:02;98580.32;;;6.58;53.01
83025;BME280;72958;53.326;-1.496;2023-12-07T08:20:39;98571.10;;;6.86;51.28
83025;BME280;72958;53.326;-1.496;2023-12-07T08:23:22;98565.65;;;7.25;51.19
83025;BME280;72958;53.326;-1.496;2023-12-07T08:26:17;98567.14;;;6.71;52.53
83025;BME280;72958;53.326;-1.496;2023-12-07T08:28:48;98555.27;;;7.34;51.81
83025;BME280;72958;53.326;-1.496;2023-12-07T08:32:09;98551.23;;;7.27;50.69
83025;BME280;72958;53.326;-1.496;2023-12-07T08:34:38;98547.89;;;8.02;49.74
83025;BME280;72958;53.326;-1.496;2023-12-07T08:37:20;98539.01;;;7.45;49.61
83025;BME280;72958;53.326;-1.496;2023-12-07T08:39:50;98531.36;;;7.54;49.60
83025;BME280;72958;53.326;-1.496;2023-12-07T08:42:22;98529.89;;;8.42;48.84
83025;BME280;72958;53.326;-1.496;2023-12-07T08:44:53;98519.54;;;8.50;49.26
83025;BME280;72958;53.326;-1.496;2023-12-07T08:47:20;98521.65;;;7.51;50.85
83025;BME280;72958;53.326;-1.496;2023-12-07T08:49:48;98525.05;;;7.43;51.41
83025;BME280;72958;53.326;-1.496;2023-12-07T08:52:19;98521.49;;;7.25;52.70
83025;BME280;72958;53.326;-1.496;2023-12-07T08:54:48;98521.94;;;7.27;52.21
83025;BME280;72958;53.326;-1.496;2023-12-07T08:57:33;98510.64;;;7.03;53.54
83025;BME280;72958;53.326;-1.496;2023-12-07T09:00:42;98504.45;;;7.22;53.01
83025;BME280;72958;53.326;-1.496;2023-12-07T09:03:33;98504.34;;;7.91;51.77
83025;BME280;72958;53.326;-1.496;2023-12-07T09:06:07;98499.86;;;6.02;54.09
83025;BME280;72958;53.326;-1.496;2023-12-07T09:08:51;98488.31;;;7.59;52.06
83025;BME280;72958;53.326;-1.496;2023-12-07T09:11:20;98481.96;;;7.94;50.24
83025;BME280;72958;53.326;-1.496;2023-12-07T09:13:52;98482.67;;;7.96;50.52
83025;BME280;72958;53.326;-1.496;2023-12-07T09:16:18;98481.88;;;8.43;50.29
83025;BME280;72958;53.326;-1.496;2023-12-07T09:18:45;98479.31;;;6.85;53.98
83025;BME280;72958;53.326;-1.496;2023-12-07T09:21:18;98472.65;;;7.54;51.60
83025;BME280;72958;53.326;-1.496;2023-12-07T09:23:48;98479.48;;;7.25;51.62
83025;BME280;72958;53.326;-1.496;2023-12-07T09:26:12;98482.05;;;8.11;50.60
83025;BME280;72958;53.326;-1.496;2023-12-07T09:28:52;98476.33;;;7.98;50.70
83025;BME280;72958;53.326;-1.496;2023-12-07T09:31:24;98472.99;;;7.52;52.69
83025;BME280;72958;53.326;-1.496;2023-12-07T09:34:08;98463.39;;;7.87;51.00
83025;BME280;72958;53.326;-1.496;2023-12-07T09:36:34;98464.01;;;8.32;49.85
83025;BME280;72958;53.326;-1.496;2023-12-07T09:39:12;98461.83;;;7.53;51.42
83025;BME280;72958;53.326;-1.496;2023-12-07T09:41:42;98457.63;;;8.00;50.12
83025;BME280;72958;53.326;-1.496;2023-12-07T09:44:19;98451.84;;;7.85;50.63
83025;BME280;72958;53.326;-1.496;2023-12-07T09:46:54;98446.41;;;7.52;51.55
83025;BME280;72958;53.326;-1.496;2023-12-07T09:49:41;98434.99;;;7.33;52.67
83025;BME280;72958;53.326;-1.496;2023-12-07T09:52:27;98432.82;;;7.63;51.68
83025;BME280;72958;53.326;-1.496;2023-12-07T09:55:06;98429.18;;;8.03;51.82
83025;BME280;72958;53.326;-1.496;2023-12-07T09:57:37;98427.60;;;6.99;53.64
83025;BME280;72958;53.326;-1.496;2023-12-07T10:00:11;98427.87;;;6.49;55.06
83025;BME280;72958;53.326;-1.496;2023-12-07T10:02:37;98420.88;;;7.15;52.77
83025;BME280;72958;53.326;-1.496;2023-12-07T10:05:07;98417.68;;;7.42;52.30
83025;BME280;72958;53.326;-1.496;2023-12-07T10:07:38;98414.29;;;7.48;51.86
83025;BME280;72958;53.326;-1.496;2023-12-07T10:10:06;98408.71;;;7.25;52.88
83025;BME280;72958;53.326;-1.496;2023-12-07T10:12:34;98408.16;;;7.10;53.81
83025;BME280;72958;53.326;-1.496;2023-12-07T10:15:12;98399.24;;;7.35;52.38
83025;BME280;72958;53.326;-1.496;2023-12-07T10:17:46;98391.04;;;6.93;54.42
83025;BME280;72958;53.326;-1.496;2023-12-07T10:20:46;98388.96;;;6.70;55.29
83025;BME280;72958;53.326;-1.496;2023-12-07T10:23:27;98397.19;;;6.70;55.38
83025;BME280;72958;53.326;-1.496;2023-12-07T10:25:58;98393.78;;;7.40;53.82
83025;BME280;72958;53.326;-1.496;2023-12-07T10:28:52;98390.50;;;7.32;53.85
83025;BME280;72958;53.326;-1.496;2023-12-07T10:31:19;98382.83;;;7.68;51.66
83025;BME280;72958;53.326;-1.496;2023-12-07T10:33:52;98377.25;;;7.65;52.59
83025;BME280;72958;53.326;-1.496;2023-12-07T10:39:28;98375.64;;;7.13;53.33
83025;BME280;72958;53.326;-1.496;2023-12-07T10:41:47;98375.85;;;7.52;52.73
83025;BME280;72958;53.326;-1.496;2023-12-07T10:44:14;98371.46;;;7.06;54.20
83025;BME280;72958;53.326;-1.496;2023-12-07T10:46:37;98364.70;;;7.17;53.77
83025;BME280;72958;53.326;-1.496;2023-12-07T10:49:05;98361.48;;;7.14;51.83
83025;BME280;72958;53.326;-1.496;2023-12-07T10:51:31;98352.06;;;8.26;51.40
83025;BME280;72958;53.326;-1.496;2023-12-07T10:53:57;98344.36;;;7.57;53.29
83025;BME280;72958;53.326;-1.496;2023-12-07T10:56:33;98342.86;;;7.17;53.48
83025;BME280;72958;53.326;-1.496;2023-12-07T10:58:53;98334.52;;;7.38;53.70
83025;BME280;72958;53.326;-1.496;2023-12-07T11:01:20;98332.01;;;7.12;53.63
83025;BME280;72958;53.326;-1.496;2023-12-07T11:03:51;98325.10;;;7.85;52.00
83025;BME280;72958;53.326;-1.496;2023-12-07T11:06:15;98320.53;;;7.28;53.71
83025;BME280;72958;53.326;-1.496;2023-12-07T11:08:51;98321.07;;;6.61;55.12
83025;BME280;72958;53.326;-1.496;2023-12-07T11:11:23;98312.34;;;7.38;53.84
83025;BME280;72958;53.326;-1.496;2023-12-07T11:14:35;98307.96;;;5.83;57.63
83025;BME280;72958;53.326;-1.496;2023-12-07T11:17:05;98291.44;;;6.62;56.71
83025;BME280;72958;53.326;-1.496;2023-12-07T11:19:46;98287.95;;;6.34;58.05
83025;BME280;72958;53.326;-1.496;2023-12-07T11:22:15;98289.17;;;6.87;56.42
83025;BME280;72958;53.326;-1.496;2023-12-07T11:24:55;98286.42;;;7.31;55.24
83025;BME280;72958;53.326;-1.496;2023-12-07T11:27:19;98271.46;;;6.66;56.50
83025;BME280;72958;53.326;-1.496;2023-12-07T11:29:48;98271.08;;;6.22;57.86
83025;BME280;72958;53.326;-1.496;2023-12-07T11:32:44;98265.03;;;6.98;56.18
83025;BME280;72958;53.326;-1.496;2023-12-07T11:38:07;98269.28;;;7.71;54.56
83025;BME280;72958;53.326;-1.496;2023-12-07T11:40:50;98266.85;;;6.90;56.44
83025;BME280;72958;53.326;-1.496;2023-12-07T11:43:45;98266.36;;;6.93;55.91
83025;BME280;72958;53.326;-1.496;2023-12-07T11:46:20;98264.31;;;7.34;54.90
83025;BME280;72958;53.326;-1.496;2023-12-07T11:49:04;98262.86;;;6.42;57.03
83025;BME280;72958;53.326;-1.496;2023-12-07T11:51:34;98256.91;;;7.78;54.12
83025;BME280;72958;53.326;-1.496;2023-12-07T11:54:11;98248.51;;;8.19;52.23
83025;BME280;72958;53.326;-1.496;2023-12-07T11:57:09;98243.39;;;8.49;51.88
83025;BME280;72958;53.326;-1.496;2023-12-07T11:59:44;98235.14;;;8.17;52.53
83025;BME280;72958;53.326;-1.496;2023-12-07T12:03:09;98230.32;;;8.66;51.40
83025;BME280;72958;53.326;-1.496;2023-12-07T12:05:44;98225.73;;;8.21;52.04
83025;BME280;72958;53.326;-1.496;2023-12-07T12:08:18;98217.78;;;8.49;51.60
83025;BME280;72958;53.326;-1.496;2023-12-07T12:10:47;98207.15;;;7.81;52.95
83025;BME280;72958;53.326;-1.496;2023-12-07T12:13:27;98203.69;;;8.45;51.86
83025;BME280;72958;53.326;-1.496;2023-12-07T12:15:49;98205.32;;;8.30;51.96
83025;BME280;72958;53.326;-1.496;2023-12-07T12:18:46;98195.64;;;8.36;51.78
83025;BME280;72958;53.326;-1.496;2023-12-07T12:21:20;98189.87;;;7.68;53.17
83025;BME280;72958;53.326;-1.496;2023-12-07T12:23:51;98178.07;;;8.56;51.40
83025;BME280;72958;53.326;-1.496;2023-12-07T12:26:22;98176.06;;;8.60;51.25
83025;BME280;72958;53.326;-1.496;2023-12-07T12:28:50;98168.73;;;8.16;51.53
83025;BME280;72958;53.326;-1.496;2023-12-07T12:31:20;98170.99;;;7.53;53.35
83025;BME280;72958;53.326;-1.496;2023-12-07T12:33:49;98163.65;;;8.63;51.32
83025;BME280;72958;53.326;-1.496;2023-12-07T12:36:25;98163.20;;;8.80;50.97
83025;BME280;72958;53.326;-1.496;2023-12-07T12:39:00;98159.98;;;8.38;51.08
83025;BME280;72958;53.326;-1.496;2023-12-07T12:41:28;98154.87;;;6.82;53.78
83025;BME280;72958;53.326;-1.496;2023-12-07T12:43:54;98150.38;;;7.71;53.08
83025;BME280;72958;53.326;-1.496;2023-12-07T12:46:20;98151.38;;;7.69;52.53
83025;BME280;72958;53.326;-1.496;2023-12-07T12:48:55;98146.55;;;8.26;51.02
83025;BME280;72958;53.326;-1.496;2023-12-07T12:51:20;98141.88;;;7.87;52.70
83025;BME280;72958;53.326;-1.496;2023-12-07T12:54:00;98134.06;;;7.97;52.43
83025;BME280;72958;53.326;-1.496;2023-12-07T12:56:34;98122.94;;;8.21;51.89
83025;BME280;72958;53.326;-1.496;2023-12-07T12:59:00;98108.95;;;8.01;51.28
83025;BME280;72958;53.326;-1.496;2023-12-07T13:01:37;98101.69;;;7.97;52.08
83025;BME280;72958;53.326;-1.496;2023-12-07T13:04:19;98105.70;;;8.27;51.50
83025;BME280;72958;53.326;-1.496;2023-12-07T13:06:53;98102.75;;;7.73;52.83
83025;BME280;72958;53.326;-1.496;2023-12-07T13:09:23;98096.51;;;7.48;54.21
83025;BME280;72958;53.326;-1.496;2023-12-07T13:11:58;98088.52;;;7.79;53.98
83025;BME280;72958;53.326;-1.496;2023-12-07T13:14:36;98082.38;;;7.82;53.42
83025;BME280;72958;53.326;-1.496;2023-12-07T13:17:05;98082.22;;;7.78;53.04
83025;BME280;72958;53.326;-1.496;2023-12-07T13:19:31;98077.64;;;8.13;52.38
83025;BME280;72958;53.326;-1.496;2023-12-07T13:22:08;98071.90;;;8.26;52.01
83025;BME280;72958;53.326;-1.496;2023-12-07T13:24:33;98067.58;;;8.26;51.90
83025;BME280;72958;53.326;-1.496;2023-12-07T13:27:00;98063.47;;;8.47;50.38
83025;BME280;72958;53.326;-1.496;2023-12-07T13:29:47;98062.00;;;8.39;51.33
83025;BME280;72958;53.326;-1.496;2023-12-07T13:32:24;98054.03;;;8.22;50.51
83025;BME280;72958;53.326;-1.496;2023-12-07T13:34:47;98031.34;;;8.74;50.73
83025;BME280;72958;53.326;-1.496;2023-12-07T13:37:20;98024.70;;;8.64;49.97
83025;BME280;72958;53.326;-1.496;2023-12-07T13:39:57;98016.21;;;9.02;49.57
83025;BME280;72958;53.326;-1.496;2023-12-07T13:42:21;98007.00;;;8.25;50.51
83025;BME280;72958;53.326;-1.496;2023-12-07T13:44:43;98006.36;;;8.81;50.68
83025;BME280;72958;53.326;-1.496;2023-12-07T13:47:10;98009.75;;;8.51;51.25
83025;BME280;72958;53.326;-1.496;2023-12-07T13:49:31;98002.54;;;8.80;50.77
83025;BME280;72958;53.326;-1.496;2023-12-07T13:51:58;97998.62;;;8.18;51.89
83025;BME280;72958;53.326;-1.496;2023-12-07T13:54:24;97988.90;;;8.82;50.24
83025;BME280;72958;53.326;-1.496;2023-12-07T13:56:59;97980.83;;;8.89;50.48
83025;BME280;72958;53.326;-1.496;2023-12-07T13:59:32;97983.71;;;8.69;50.44
83025;BME280;72958;53.326;-1.496;2023-12-07T14:02:20;97981.45;;;7.86;51.91
83025;BME280;72958;53.326;-1.496;2023-12-07T14:04:46;97974.08;;;7.94;52.34
83025;BME280;72958;53.326;-1.496;2023-12-07T14:07:23;97960.94;;;8.11;52.00